createdAt,value
2022-07-27T00:01:06.969Z,46.26
2022-07-27T00:03:36.860Z,46.45
2022-07-27T00:06:05.040Z,45.86
2022-07-27T00:08:33.519Z,46.19
2022-07-27T00:11:01.685Z,45.65
2022-07-27T00:13:29.812Z,45.80
2022-07-27T00:16:00.002Z,45.60
2022-07-27T00:18:28.841Z,45.62
2022-07-27T00:20:58.702Z,45.57
2022-07-27T00:23:26.785Z,46.00
2022-07-27T00:25:54.770Z,46.49
2022-07-27T00:28:23.150Z,46.39
2022-07-27T00:30:51.219Z,46.72
2022-07-27T00:33:19.278Z,46.47
2022-07-27T00:35:47.337Z,47.19
2022-07-27T00:38:17.166Z,46.88
2022-07-27T00:40:45.312Z,46.74
2022-07-27T00:43:13.964Z,47.47
2022-07-27T00:45:42.014Z,47.45
2022-07-27T00:48:10.018Z,47.44
2022-07-27T00:50:39.450Z,47.93
2022-07-27T00:53:08.935Z,48.10
2022-07-27T00:55:40.394Z,47.87
2022-07-27T00:58:09.922Z,48.32
2022-07-27T01:00:39.150Z,47.81
2022-07-27T01:03:09.468Z,48.54
2022-07-27T01:05:42.725Z,48.54
2022-07-27T01:08:14.778Z,48.54
2022-07-27T01:10:48.069Z,48.52
2022-07-27T01:13:19.557Z,48.62
2022-07-27T01:15:50.489Z,48.47
2022-07-27T01:18:34.201Z,49.23
2022-07-27T01:21:13.644Z,49.45
2022-07-27T01:23:48.247Z,49.86
2022-07-27T01:26:19.643Z,49.48
2022-07-27T01:28:51.462Z,49.13
2022-07-27T01:31:20.816Z,49.29
2022-07-27T01:33:53.219Z,49.24
2022-07-27T01:36:23.739Z,49.37
2022-07-27T01:38:56.363Z,49.54
2022-07-27T01:41:28.054Z,48.81
2022-07-27T01:43:58.182Z,49.22
2022-07-27T01:46:27.765Z,48.90
2022-07-27T01:48:59.123Z,48.77
2022-07-27T01:51:30.617Z,48.89
2022-07-27T01:54:02.103Z,49.26
2022-07-27T01:56:31.423Z,49.40
2022-07-27T01:59:02.966Z,49.30
2022-07-27T02:01:34.270Z,49.00
2022-07-27T02:04:06.184Z,49.17
2022-07-27T02:06:34.567Z,49.22
2022-07-27T02:09:04.375Z,48.80
2022-07-27T02:11:49.772Z,48.93
2022-07-27T02:14:18.019Z,48.63
2022-07-27T02:16:49.991Z,49.36
2022-07-27T02:19:19.226Z,49.26
2022-07-27T02:21:47.150Z,49.02
2022-07-27T02:24:16.482Z,48.52
2022-07-27T02:26:44.587Z,48.50
2022-07-27T02:29:13.673Z,48.83
2022-07-27T02:31:41.915Z,48.54
2022-07-27T02:34:10.508Z,48.99
2022-07-27T02:36:38.539Z,48.33
2022-07-27T02:39:06.775Z,49.29
2022-07-27T02:41:36.141Z,48.95
2022-07-27T02:44:04.260Z,49.58
2022-07-27T02:46:32.253Z,49.91
2022-07-27T02:49:00.557Z,49.08
2022-07-27T02:51:28.580Z,49.42
2022-07-27T02:53:56.521Z,49.07
2022-07-27T02:56:26.606Z,50.18
2022-07-27T02:58:56.648Z,50.91
2022-07-27T03:01:24.845Z,50.33
2022-07-27T03:03:53.066Z,50.27
2022-07-27T03:06:21.072Z,50.84
2022-07-27T03:08:49.202Z,50.54
2022-07-27T03:11:17.156Z,49.93
2022-07-27T03:13:45.244Z,49.96
2022-07-27T03:16:15.186Z,50.72
2022-07-27T03:18:43.474Z,49.96
2022-07-27T03:21:11.533Z,49.90
2022-07-27T03:23:40.500Z,49.83
2022-07-27T03:26:08.707Z,50.24
2022-07-27T03:28:36.949Z,49.43
2022-07-27T03:31:05.014Z,49.75
2022-07-27T03:33:36.256Z,49.92
2022-07-27T03:36:05.529Z,49.36
2022-07-27T03:38:33.482Z,49.99
2022-07-27T03:41:01.483Z,49.92
2022-07-27T03:43:29.652Z,49.77
2022-07-27T03:45:57.885Z,50.12
2022-07-27T03:48:27.260Z,49.62
2022-07-27T03:50:56.685Z,50.16
2022-07-27T03:53:24.743Z,49.96
2022-07-27T03:55:52.966Z,50.40
2022-07-27T03:58:23.246Z,50.28
2022-07-27T04:00:51.568Z,50.20
2022-07-27T04:03:19.809Z,50.60
2022-07-27T04:05:47.760Z,50.51
2022-07-27T04:08:21.861Z,50.68
2022-07-27T04:10:50.438Z,51.06
2022-07-27T04:13:22.368Z,50.71
2022-07-27T04:15:52.886Z,50.53
2022-07-27T04:18:23.154Z,51.21
2022-07-27T04:20:53.281Z,50.30
2022-07-27T04:23:25.271Z,50.84
2022-07-27T04:25:56.449Z,50.29
2022-07-27T04:28:27.316Z,50.30
2022-07-27T04:30:58.113Z,50.07
2022-07-27T04:33:27.239Z,50.51
2022-07-27T04:35:57.044Z,51.13
2022-07-27T04:38:28.545Z,50.81
2022-07-27T04:40:59.577Z,51.13
2022-07-27T04:43:29.928Z,50.91
2022-07-27T04:46:00.485Z,50.96
2022-07-27T04:48:31.858Z,51.33
2022-07-27T04:51:02.603Z,51.23
2022-07-27T04:53:36.678Z,52.00
2022-07-27T04:56:26.629Z,52.25
2022-07-27T04:58:58.035Z,52.75
2022-07-27T05:01:33.160Z,53.74
2022-07-27T05:04:05.678Z,54.55
2022-07-27T05:06:34.314Z,54.94
2022-07-27T05:09:04.277Z,55.20
2022-07-27T05:11:34.508Z,55.36
2022-07-27T05:14:03.934Z,56.03
2022-07-27T05:16:31.982Z,55.98
2022-07-27T05:19:00.287Z,55.96
2022-07-27T05:21:29.342Z,56.40
2022-07-27T05:23:57.201Z,56.44
2022-07-27T05:26:26.807Z,56.91
2022-07-27T05:28:54.802Z,57.28
2022-07-27T05:31:22.864Z,57.00
2022-07-27T05:33:58.107Z,57.46
2022-07-27T05:36:26.688Z,57.47
2022-07-27T05:38:56.503Z,57.45
2022-07-27T05:41:28.969Z,57.82
2022-07-27T05:43:59.878Z,57.55
2022-07-27T05:46:38.450Z,57.29
2022-07-27T05:49:09.020Z,56.72
2022-07-27T05:51:38.898Z,57.60
2022-07-27T05:54:09.894Z,56.90
2022-07-27T05:56:39.906Z,57.16
2022-07-27T05:59:09.474Z,56.82
2022-07-27T06:01:40.886Z,56.81
2022-07-27T06:04:10.638Z,55.81
2022-07-27T06:07:01.307Z,55.17
2022-07-27T06:09:29.593Z,54.83
2022-07-27T06:12:10.519Z,54.75
2022-07-27T06:14:38.854Z,55.13
2022-07-27T06:17:07.740Z,54.99
2022-07-27T06:19:39.623Z,54.45
2022-07-27T06:22:08.386Z,54.96
2022-07-27T06:24:36.713Z,54.61
2022-07-27T06:27:08.497Z,54.89
2022-07-27T06:29:40.136Z,54.61
2022-07-27T06:32:11.550Z,54.22
2022-07-27T06:34:44.590Z,53.05
2022-07-27T06:37:19.592Z,53.97
2022-07-27T06:39:51.013Z,53.42
2022-07-27T06:42:25.040Z,53.91
2022-07-27T06:44:55.472Z,54.14
2022-07-27T06:47:28.839Z,53.62
2022-07-27T06:50:00.162Z,52.41
2022-07-27T06:52:31.982Z,52.44
2022-07-27T06:55:04.147Z,53.21
2022-07-27T06:57:35.624Z,53.01
2022-07-27T07:00:07.450Z,53.48
2022-07-27T07:02:38.623Z,51.28
2022-07-27T07:05:10.663Z,51.66
2022-07-27T07:07:39.625Z,48.36
2022-07-27T07:10:09.138Z,47.49
2022-07-27T07:12:40.887Z,46.97
2022-07-27T07:15:11.161Z,47.53
2022-07-27T07:17:42.394Z,46.77
2022-07-27T07:20:13.673Z,47.71
2022-07-27T07:22:42.822Z,47.18
2022-07-27T07:25:13.479Z,48.28
2022-07-27T07:27:47.180Z,49.70
2022-07-27T07:30:19.722Z,50.03
2022-07-27T07:32:51.470Z,50.49
2022-07-27T07:35:22.048Z,51.08
2022-07-27T07:37:53.623Z,50.94
2022-07-27T07:43:17.145Z,51.28
2022-07-27T07:45:51.581Z,51.64
2022-07-27T07:48:23.228Z,51.01
2022-07-27T07:50:54.535Z,51.64
2022-07-27T07:53:26.694Z,51.76
2022-07-27T07:55:57.949Z,53.30
2022-07-27T07:58:30.286Z,54.73
2022-07-27T08:00:59.768Z,55.25
2022-07-27T08:03:29.994Z,55.17
2022-07-27T08:05:58.675Z,55.21
2022-07-27T08:08:27.849Z,54.72
2022-07-27T08:10:56.202Z,53.35
2022-07-27T08:13:24.458Z,53.30
2022-07-27T08:15:54.701Z,53.74
2022-07-27T08:18:22.846Z,53.52
2022-07-27T08:20:52.537Z,53.26
2022-07-27T08:23:20.996Z,53.43
2022-07-27T08:25:49.433Z,53.28
2022-07-27T08:28:17.605Z,52.50
2022-07-27T08:30:46.550Z,50.92
2022-07-27T08:33:18.012Z,50.70
2022-07-27T08:35:50.171Z,50.51
2022-07-27T08:38:21.468Z,50.89
2022-07-27T08:40:51.936Z,50.51
2022-07-27T08:43:25.199Z,49.25
2022-07-27T08:45:57.045Z,48.92
2022-07-27T08:48:30.847Z,49.56
2022-07-27T08:51:00.185Z,49.35
2022-07-27T08:53:52.212Z,48.85
2022-07-27T08:56:22.695Z,47.09
2022-07-27T08:58:52.720Z,45.29
2022-07-27T09:01:24.016Z,44.70
2022-07-27T09:03:56.436Z,44.66
2022-07-27T09:06:46.060Z,43.89
2022-07-27T09:09:23.039Z,44.31
2022-07-27T09:12:06.572Z,43.17
2022-07-27T09:14:37.203Z,41.47
2022-07-27T09:20:18.613Z,40.44
2022-07-27T09:22:52.722Z,40.66
2022-07-27T09:25:38.689Z,40.70
2022-07-27T09:28:12.503Z,41.91
2022-07-27T09:30:43.711Z,41.63
2022-07-27T09:33:12.154Z,42.00
2022-07-27T09:35:41.652Z,40.47
2022-07-27T09:38:20.453Z,41.30
2022-07-27T09:40:51.036Z,40.66
2022-07-27T09:44:12.283Z,41.56
2022-07-27T09:46:08.313Z,40.31
2022-07-27T09:48:37.239Z,41.07
2022-07-27T09:51:55.963Z,40.87
2022-07-27T09:54:00.017Z,41.09
2022-07-27T09:56:30.474Z,41.05
2022-07-27T09:59:00.128Z,41.49
2022-07-27T10:01:31.144Z,41.26
2022-07-27T10:04:03.521Z,40.67
2022-07-27T10:06:53.487Z,41.30
2022-07-27T10:09:22.176Z,40.66
2022-07-27T10:11:50.665Z,40.22
2022-07-27T10:14:20.886Z,40.02
2022-07-27T10:16:53.196Z,39.08
2022-07-27T10:19:29.052Z,38.74
2022-07-27T10:21:58.449Z,39.29
2022-07-27T10:24:29.511Z,38.27
2022-07-27T10:27:20.195Z,38.19
2022-07-27T10:29:52.432Z,38.36
2022-07-27T10:32:28.286Z,38.93
2022-07-27T10:34:59.334Z,39.15
2022-07-27T10:37:32.782Z,39.41
2022-07-27T10:40:20.764Z,40.78
2022-07-27T10:42:54.471Z,40.07
2022-07-27T10:45:27.820Z,40.10
2022-07-27T10:48:47.517Z,40.72
2022-07-27T10:51:36.851Z,39.96
2022-07-27T10:54:22.982Z,39.30
2022-07-27T10:56:55.668Z,38.91
2022-07-27T11:00:08.551Z,38.35
2022-07-27T11:02:41.859Z,40.15
2022-07-27T11:05:53.918Z,38.98
2022-07-27T11:08:47.474Z,38.67
2022-07-27T11:10:49.872Z,38.82
2022-07-27T11:13:19.880Z,39.83
2022-07-27T11:15:56.028Z,41.57
2022-07-27T11:21:16.296Z,41.34
2022-07-27T11:23:51.409Z,41.34
2022-07-27T11:26:22.115Z,41.66
2022-07-27T11:28:51.110Z,40.79
2022-07-27T11:31:38.672Z,39.19
2022-07-27T11:34:09.937Z,39.39
2022-07-27T11:36:41.204Z,39.93
2022-07-27T11:39:14.977Z,40.98
2022-07-27T11:42:08.846Z,40.64
2022-07-27T11:44:33.808Z,40.65
2022-07-27T11:47:02.884Z,41.87
2022-07-27T11:49:32.662Z,42.15
2022-07-27T11:52:02.739Z,41.31
2022-07-27T11:54:32.635Z,41.48
2022-07-27T11:57:03.513Z,41.07
2022-07-27T11:59:32.635Z,42.06
2022-07-27T12:02:02.938Z,42.41
2022-07-27T12:04:33.007Z,41.92
2022-07-27T12:07:08.177Z,41.99
2022-07-27T12:09:39.297Z,42.22
2022-07-27T12:12:17.242Z,41.70
2022-07-27T12:14:51.903Z,42.16
2022-07-27T12:17:32.357Z,40.85
2022-07-27T12:20:07.106Z,40.72
2022-07-27T12:22:39.982Z,39.54
2022-07-27T12:25:16.091Z,39.69
2022-07-27T12:27:59.953Z,40.21
2022-07-27T12:30:33.605Z,39.45
2022-07-27T12:33:05.253Z,39.65
2022-07-27T12:35:45.899Z,40.75
2022-07-27T12:38:16.382Z,41.06
2022-07-27T12:40:47.238Z,40.21
2022-07-27T12:43:21.757Z,40.82
2022-07-27T12:45:51.988Z,40.00
2022-07-27T12:48:22.755Z,39.99
2022-07-27T12:50:59.935Z,39.27
2022-07-27T12:53:28.198Z,39.32
2022-07-27T12:55:59.464Z,38.47
2022-07-27T12:58:30.702Z,39.02
2022-07-27T13:01:00.849Z,37.63
2022-07-27T13:03:29.952Z,37.42
2022-07-27T13:05:58.151Z,38.67
2022-07-27T13:08:26.376Z,39.11
2022-07-27T13:10:54.473Z,38.66
2022-07-27T13:13:24.662Z,38.70
2022-07-27T13:15:54.370Z,38.70
2022-07-27T13:18:23.997Z,39.05
2022-07-27T13:20:52.898Z,38.92
2022-07-27T13:23:21.607Z,39.41
2022-07-27T13:25:49.923Z,40.53
2022-07-27T13:28:18.048Z,40.39
2022-07-27T13:30:46.280Z,39.21
2022-07-27T13:33:15.811Z,39.58
2022-07-27T13:35:43.890Z,38.88
2022-07-27T13:38:16.604Z,39.31
2022-07-27T13:40:45.130Z,38.92
2022-07-27T13:43:13.289Z,39.06
2022-07-27T13:45:43.265Z,39.27
2022-07-27T13:48:13.188Z,39.72
2022-07-27T13:50:43.046Z,39.44
2022-07-27T13:53:15.132Z,40.38
2022-07-27T13:55:44.387Z,39.34
2022-07-27T13:58:12.996Z,39.90
2022-07-27T14:00:41.974Z,40.43
2022-07-27T14:03:11.454Z,39.01
2022-07-27T14:05:49.252Z,38.93
2022-07-27T14:08:19.207Z,38.17
2022-07-27T14:10:47.308Z,38.35
2022-07-27T14:13:17.619Z,38.91
2022-07-27T14:15:54.137Z,38.97
2022-07-27T14:18:25.621Z,38.29
2022-07-27T14:20:55.716Z,38.22
2022-07-27T14:23:26.098Z,38.25
2022-07-27T14:25:55.529Z,38.40
2022-07-27T14:28:24.439Z,37.37
2022-07-27T14:30:53.524Z,37.32
2022-07-27T14:33:21.621Z,36.92
2022-07-27T14:35:49.942Z,36.36
2022-07-27T14:38:26.986Z,36.37
2022-07-27T14:40:59.285Z,36.17
2022-07-27T14:43:27.976Z,36.69
2022-07-27T14:45:55.899Z,36.14
2022-07-27T14:48:42.214Z,35.93
2022-07-27T14:51:12.681Z,35.61
2022-07-27T14:53:42.414Z,35.67
2022-07-27T14:56:10.467Z,35.23
2022-07-27T14:58:38.565Z,36.34
2022-07-27T15:01:06.926Z,35.46
2022-07-27T15:03:35.175Z,35.73
2022-07-27T15:06:03.439Z,36.26
2022-07-27T15:08:31.786Z,36.49
2022-07-27T15:11:01.064Z,37.16
2022-07-27T15:13:29.007Z,36.34
2022-07-27T15:15:58.280Z,35.66
2022-07-27T15:18:26.489Z,34.28
2022-07-27T15:20:54.440Z,34.67
2022-07-27T15:23:23.339Z,33.85
2022-07-27T15:25:52.024Z,34.09
2022-07-27T15:28:21.465Z,33.85
2022-07-27T15:30:49.864Z,34.42
2022-07-27T15:33:18.175Z,33.93
2022-07-27T15:35:46.181Z,33.58
2022-07-27T15:38:16.236Z,33.97
2022-07-27T15:40:44.269Z,34.20
2022-07-27T15:43:15.460Z,34.77
2022-07-27T15:45:47.709Z,34.09
2022-07-27T15:48:17.642Z,33.85
2022-07-27T15:50:48.513Z,33.73
2022-07-27T15:53:27.454Z,34.31
2022-07-27T15:55:56.815Z,34.19
2022-07-27T15:58:25.459Z,34.92
2022-07-27T16:00:57.702Z,34.85
2022-07-27T16:03:27.292Z,35.46
2022-07-27T16:05:56.696Z,35.70
2022-07-27T16:08:27.239Z,35.90
2022-07-27T16:10:55.604Z,35.88
2022-07-27T16:13:23.676Z,35.32
2022-07-27T16:16:09.646Z,35.73
2022-07-27T16:18:40.247Z,35.81
2022-07-27T16:21:10.194Z,35.80
2022-07-27T16:23:41.201Z,35.77
2022-07-27T16:26:14.263Z,35.65
2022-07-27T16:28:48.155Z,35.44
2022-07-27T16:31:20.555Z,34.82
2022-07-27T16:33:55.168Z,35.16
2022-07-27T16:36:24.239Z,34.84
2022-07-27T16:38:53.740Z,35.21
2022-07-27T16:41:23.625Z,35.20
2022-07-27T16:43:53.114Z,35.39
2022-07-27T16:46:23.167Z,35.17
2022-07-27T16:48:54.731Z,34.65
2022-07-27T16:51:25.000Z,34.41
2022-07-27T16:53:55.145Z,33.81
2022-07-27T16:56:26.194Z,34.06
2022-07-27T16:58:57.700Z,34.05
2022-07-27T17:01:27.345Z,33.97
2022-07-27T17:04:02.278Z,33.76
2022-07-27T17:06:32.455Z,34.00
2022-07-27T17:09:01.194Z,33.85
2022-07-27T17:11:29.584Z,34.01
2022-07-27T17:13:59.349Z,34.54
2022-07-27T17:16:29.229Z,34.62
2022-07-27T17:18:58.693Z,35.21
2022-07-27T17:21:26.885Z,35.46
2022-07-27T17:23:56.113Z,35.63
2022-07-27T17:26:24.875Z,35.46
2022-07-27T17:28:53.871Z,36.53
2022-07-27T17:31:22.754Z,36.90
2022-07-27T17:33:52.062Z,36.94
2022-07-27T17:36:22.256Z,37.00
2022-07-27T17:38:53.859Z,37.74
2022-07-27T17:41:24.836Z,38.21
2022-07-27T17:43:54.034Z,38.07
2022-07-27T17:46:24.753Z,38.72
2022-07-27T17:48:53.341Z,38.80
2022-07-27T17:51:25.440Z,38.66
2022-07-27T17:53:55.642Z,38.33
2022-07-27T17:56:23.740Z,38.47
2022-07-27T17:58:52.186Z,38.83
2022-07-27T18:01:46.407Z,38.90
2022-07-27T18:04:08.767Z,38.38
2022-07-27T18:06:38.712Z,38.74
2022-07-27T18:09:08.784Z,38.84
2022-07-27T18:11:38.787Z,39.19
2022-07-27T18:14:09.818Z,39.28
2022-07-27T18:16:41.488Z,39.01
2022-07-27T18:19:13.618Z,38.77
2022-07-27T18:21:44.098Z,38.54
2022-07-27T18:24:12.725Z,38.86
2022-07-27T18:26:42.633Z,38.64
2022-07-27T18:29:14.231Z,38.72
2022-07-27T18:31:44.041Z,39.64
2022-07-27T18:34:17.512Z,39.14
2022-07-27T18:36:47.923Z,39.37
2022-07-27T18:39:18.379Z,39.33
2022-07-27T18:41:47.753Z,39.60
2022-07-27T18:44:16.035Z,39.92
2022-07-27T18:46:44.333Z,39.84
2022-07-27T18:49:18.315Z,39.84
2022-07-27T18:51:48.841Z,39.61
2022-07-27T18:54:18.610Z,39.04
2022-07-27T18:56:48.377Z,39.39
2022-07-27T18:59:19.626Z,39.46
2022-07-27T19:01:49.419Z,38.95
2022-07-27T19:04:18.147Z,39.21
2022-07-27T19:06:50.828Z,39.20
2022-07-27T19:09:20.303Z,39.29
2022-07-27T19:11:48.655Z,39.75
2022-07-27T19:14:18.475Z,39.72
2022-07-27T19:16:47.164Z,40.20
2022-07-27T19:19:20.670Z,39.97
2022-07-27T19:21:52.280Z,40.21
2022-07-27T19:24:20.843Z,40.50
2022-07-27T19:26:49.001Z,40.24
2022-07-27T19:29:19.973Z,40.74
2022-07-27T19:31:48.786Z,40.48
2022-07-27T19:34:17.156Z,40.73
2022-07-27T19:36:45.743Z,40.33
2022-07-27T19:39:16.054Z,41.16
2022-07-27T19:41:53.246Z,40.57
2022-07-27T19:44:22.544Z,40.86
2022-07-27T19:46:50.913Z,40.98
2022-07-27T19:49:19.272Z,40.25
2022-07-27T19:51:47.703Z,40.42
2022-07-27T19:54:17.430Z,40.96
2022-07-27T19:56:52.380Z,40.93
2022-07-27T19:59:20.826Z,40.90
2022-07-27T20:01:49.185Z,41.02
2022-07-27T20:04:17.413Z,40.97
2022-07-27T20:06:45.944Z,40.76
2022-07-27T20:09:14.527Z,40.93
2022-07-27T20:11:44.803Z,41.11
2022-07-27T20:14:12.944Z,40.86
2022-07-27T20:16:41.956Z,40.71
2022-07-27T20:19:10.231Z,41.20
2022-07-27T20:21:40.311Z,40.95
2022-07-27T20:24:09.426Z,40.58
2022-07-27T20:26:37.411Z,40.56
2022-07-27T20:29:07.704Z,40.72
2022-07-27T20:31:35.697Z,40.63
2022-07-27T20:34:04.154Z,40.69
2022-07-27T20:36:32.689Z,41.36
2022-07-27T20:39:04.901Z,41.15
2022-07-27T20:41:35.536Z,40.59
2022-07-27T20:44:03.506Z,40.89
2022-07-27T20:46:32.920Z,41.40
2022-07-27T20:49:01.305Z,41.35
2022-07-27T20:51:29.306Z,41.38
2022-07-27T20:53:58.418Z,41.69
2022-07-27T20:56:26.995Z,41.71
2022-07-27T20:58:54.926Z,41.28
2022-07-27T21:01:22.958Z,41.81
2022-07-27T21:03:56.363Z,41.69
2022-07-27T21:06:24.445Z,42.18
2022-07-27T21:08:52.499Z,42.26
2022-07-27T21:11:21.347Z,41.82
2022-07-27T21:13:49.407Z,42.05
2022-07-27T21:16:17.470Z,41.82
2022-07-27T21:18:45.594Z,42.01
2022-07-27T21:21:15.146Z,41.72
2022-07-27T21:24:00.523Z,41.72
2022-07-27T21:26:31.949Z,41.99
2022-07-27T21:29:00.095Z,41.70
2022-07-27T21:31:30.156Z,41.75
2022-07-27T21:33:58.347Z,41.90
2022-07-27T21:36:29.288Z,42.19
2022-07-27T21:38:57.629Z,42.68
2022-07-27T21:41:25.891Z,41.88
2022-07-27T21:43:54.038Z,42.17
2022-07-27T21:46:22.277Z,41.78
2022-07-27T21:48:51.027Z,41.72
2022-07-27T21:51:19.619Z,42.00
2022-07-27T21:53:49.913Z,41.82
2022-07-27T21:56:18.529Z,42.06
2022-07-27T21:58:48.000Z,41.96
2022-07-27T22:01:17.476Z,42.27
2022-07-27T22:03:45.915Z,42.32
2022-07-27T22:06:13.967Z,41.78
2022-07-27T22:08:42.061Z,42.08
2022-07-27T22:11:11.510Z,42.39
2022-07-27T22:13:39.401Z,42.54
2022-07-27T22:16:08.978Z,42.51
2022-07-27T22:18:37.269Z,42.44
2022-07-27T22:21:05.598Z,42.64
2022-07-27T22:23:33.706Z,42.85
2022-07-27T22:26:01.796Z,43.05
2022-07-27T22:28:31.259Z,42.94
2022-07-27T22:31:21.393Z,42.93
2022-07-27T22:33:47.885Z,42.71
2022-07-27T22:36:17.502Z,42.85
2022-07-27T22:38:45.647Z,42.97
2022-07-27T22:41:13.917Z,43.17
2022-07-27T22:43:43.257Z,44.50
2022-07-27T22:46:11.368Z,43.97
2022-07-27T22:48:39.574Z,44.15
2022-07-27T22:51:08.342Z,44.31
2022-07-27T22:53:38.487Z,44.15
2022-07-27T22:56:06.751Z,44.71
2022-07-27T22:58:34.865Z,43.92
2022-07-27T23:01:04.456Z,44.00
2022-07-27T23:03:32.914Z,44.23
2022-07-27T23:06:01.051Z,43.63
2022-07-27T23:08:29.173Z,43.43
2022-07-27T23:10:57.239Z,43.59
2022-07-27T23:13:25.290Z,43.87
2022-07-27T23:16:01.627Z,44.02
2022-07-27T23:18:31.055Z,43.80
2022-07-27T23:20:59.476Z,44.46
2022-07-27T23:23:27.822Z,44.83
2022-07-27T23:25:55.783Z,44.39
2022-07-27T23:28:27.752Z,43.72
2022-07-27T23:30:55.778Z,44.84
2022-07-27T23:33:23.827Z,45.10
2022-07-27T23:35:53.399Z,44.67
2022-07-27T23:38:21.446Z,45.17
2022-07-27T23:40:50.641Z,44.83
2022-07-27T23:43:18.605Z,45.17
2022-07-27T23:45:47.918Z,44.54
2022-07-27T23:48:16.869Z,45.43
2022-07-27T23:50:44.967Z,45.33
2022-07-27T23:53:18.093Z,45.69
2022-07-27T23:55:46.285Z,45.45
2022-07-27T23:58:14.269Z,45.18
